createdAt,value
2018-08-25T00:00:29.182Z,1.73
2018-08-25T00:02:57.550Z,2.40
2018-08-25T00:05:25.942Z,2.30
2018-08-25T00:07:54.305Z,2.00
2018-08-25T00:10:22.686Z,1.80
2018-08-25T00:12:51.047Z,2.07
2018-08-25T00:15:19.474Z,3.47
2018-08-25T00:17:47.857Z,2.00
2018-08-25T00:20:16.252Z,2.10
2018-08-25T00:22:44.619Z,1.53
2018-08-25T00:25:13.006Z,2.03
2018-08-25T00:27:41.374Z,2.30
2018-08-25T00:30:15.007Z,2.20
2018-08-25T00:32:43.378Z,2.70
2018-08-25T00:35:11.775Z,2.77
2018-08-25T00:37:40.153Z,2.50
2018-08-25T00:40:08.566Z,1.93
2018-08-25T00:42:36.943Z,2.07
2018-08-25T00:45:05.449Z,1.90
2018-08-25T00:47:33.889Z,2.00
2018-08-25T00:50:02.264Z,2.53
2018-08-25T00:52:30.717Z,2.20
2018-08-25T00:54:59.082Z,2.43
2018-08-25T00:57:27.489Z,2.10
2018-08-25T00:59:55.866Z,2.10
2018-08-25T01:02:24.713Z,1.87
2018-08-25T01:04:53.085Z,1.43
2018-08-25T01:07:21.677Z,2.20
2018-08-25T01:09:50.053Z,2.03
2018-08-25T01:12:18.449Z,2.13
2018-08-25T01:14:46.821Z,2.00
2018-08-25T01:17:15.205Z,2.73
2018-08-25T01:19:43.596Z,2.13
2018-08-25T01:22:12.126Z,1.77
2018-08-25T01:24:40.501Z,2.50
2018-08-25T01:27:08.894Z,2.13
2018-08-25T01:29:37.259Z,1.90
2018-08-25T01:32:05.662Z,1.60
2018-08-25T01:34:34.027Z,2.30
2018-08-25T01:37:02.422Z,2.60
2018-08-25T01:39:31.081Z,2.27
2018-08-25T01:41:59.475Z,2.67
2018-08-25T01:44:27.856Z,2.90
2018-08-25T01:46:56.262Z,2.23
2018-08-25T01:49:24.631Z,2.20
2018-08-25T01:51:53.018Z,2.17
2018-08-25T01:54:21.410Z,2.00
2018-08-25T01:56:49.795Z,2.40
2018-08-25T01:59:18.194Z,2.93
2018-08-25T02:01:46.587Z,2.30
2018-08-25T02:04:15.098Z,2.47
2018-08-25T02:06:43.492Z,2.40
2018-08-25T02:09:13.674Z,2.60
2018-08-25T02:11:42.411Z,2.80
2018-08-25T02:14:11.578Z,2.53
2018-08-25T02:16:40.707Z,2.60
2018-08-25T02:19:09.102Z,2.47
2018-08-25T02:21:37.770Z,2.60
2018-08-25T02:24:06.331Z,2.83
2018-08-25T02:26:34.731Z,2.37
2018-08-25T02:29:03.106Z,2.90
2018-08-25T02:31:31.498Z,2.87
2018-08-25T02:33:59.914Z,3.20
2018-08-25T02:36:28.301Z,2.13
2018-08-25T02:38:56.678Z,2.47
2018-08-25T02:41:25.074Z,3.00
2018-08-25T02:43:53.475Z,2.63
2018-08-25T02:46:21.843Z,2.53
2018-08-25T02:48:50.241Z,2.37
2018-08-25T02:51:18.623Z,2.90
2018-08-25T02:53:47.014Z,2.50
2018-08-25T02:56:15.398Z,2.23
2018-08-25T02:58:43.799Z,2.67
2018-08-25T03:01:12.177Z,2.63
2018-08-25T03:03:40.574Z,2.47
2018-08-25T03:06:08.954Z,2.40
2018-08-25T03:08:37.359Z,2.50
2018-08-25T03:11:05.739Z,2.90
2018-08-25T03:13:34.405Z,2.90
2018-08-25T03:16:02.750Z,2.37
2018-08-25T03:18:31.170Z,2.40
2018-08-25T03:20:59.539Z,2.77
2018-08-25T03:23:27.939Z,2.27
2018-08-25T03:25:56.318Z,2.33
2018-08-25T03:28:24.714Z,2.30
2018-08-25T03:30:53.088Z,2.60
2018-08-25T03:33:21.481Z,2.37
2018-08-25T03:35:49.858Z,2.20
2018-08-25T03:38:18.263Z,2.43
2018-08-25T03:40:46.639Z,2.73
2018-08-25T03:43:15.038Z,2.13
2018-08-25T03:45:43.416Z,2.93
2018-08-25T03:48:11.805Z,2.43
2018-08-25T03:50:40.191Z,2.20
2018-08-25T03:53:08.595Z,2.70
2018-08-25T03:55:36.967Z,3.10
2018-08-25T03:58:05.367Z,2.57
2018-08-25T04:00:33.743Z,2.80
2018-08-25T04:03:02.148Z,2.80
2018-08-25T04:05:30.519Z,2.57
2018-08-25T04:07:58.910Z,2.50
2018-08-25T04:10:27.291Z,2.83
2018-08-25T04:12:55.690Z,2.60
2018-08-25T04:15:24.063Z,2.50
2018-08-25T04:17:52.488Z,2.70
2018-08-25T04:20:20.979Z,2.87
2018-08-25T04:22:49.381Z,2.73
2018-08-25T04:25:17.765Z,2.60
2018-08-25T04:27:46.163Z,3.40
2018-08-25T04:30:14.707Z,3.37
2018-08-25T04:32:43.107Z,3.27
2018-08-25T04:35:11.478Z,3.20
2018-08-25T04:37:39.880Z,3.43
2018-08-25T04:40:08.263Z,3.17
2018-08-25T04:42:36.634Z,3.30
2018-08-25T04:45:05.034Z,2.90
2018-08-25T04:47:33.415Z,3.63
2018-08-25T04:50:01.814Z,3.30
2018-08-25T04:52:30.204Z,3.53
2018-08-25T04:54:58.597Z,3.27
2018-08-25T04:57:27.070Z,2.93
2018-08-25T04:59:55.467Z,3.40
2018-08-25T05:02:23.834Z,3.67
2018-08-25T05:04:52.382Z,3.47
2018-08-25T05:07:20.765Z,3.30
2018-08-25T05:09:49.171Z,3.30
2018-08-25T05:12:17.548Z,3.10
2018-08-25T05:14:45.947Z,3.30
2018-08-25T05:17:14.318Z,3.00
2018-08-25T05:19:42.744Z,3.47
2018-08-25T05:22:11.115Z,3.37
2018-08-25T05:24:39.510Z,3.10
2018-08-25T05:27:07.883Z,3.17
2018-08-25T05:29:36.278Z,2.93
2018-08-25T05:32:04.670Z,3.70
2018-08-25T05:34:33.066Z,2.37
2018-08-25T05:37:01.450Z,4.07
2018-08-25T05:39:29.845Z,3.30
2018-08-25T05:41:59.138Z,2.90
2018-08-25T05:44:27.543Z,2.90
2018-08-25T05:46:55.990Z,3.60
2018-08-25T05:49:24.408Z,3.13
2018-08-25T05:51:52.789Z,2.90
2018-08-25T05:54:21.185Z,2.57
2018-08-25T05:56:49.570Z,3.17
2018-08-25T05:59:17.981Z,3.53
2018-08-25T06:01:46.356Z,2.90
2018-08-25T06:04:14.755Z,2.90
2018-08-25T06:06:43.213Z,3.47
2018-08-25T06:09:12.789Z,3.60
2018-08-25T06:11:41.734Z,3.50
2018-08-25T06:14:10.150Z,3.03
2018-08-25T06:16:38.521Z,3.10
2018-08-25T06:19:07.184Z,3.13
2018-08-25T06:21:35.556Z,3.47
2018-08-25T06:24:03.951Z,3.40
2018-08-25T06:26:32.323Z,2.70
2018-08-25T06:29:00.714Z,3.40
2018-08-25T06:31:29.274Z,3.90
2018-08-25T06:33:57.666Z,2.70
2018-08-25T06:36:26.041Z,3.47
2018-08-25T06:38:54.443Z,3.07
2018-08-25T06:41:22.826Z,3.00
2018-08-25T06:43:51.215Z,3.43
2018-08-25T06:46:19.610Z,3.37
2018-08-25T06:48:47.978Z,3.73
2018-08-25T06:51:16.396Z,3.40
2018-08-25T06:53:44.770Z,3.43
2018-08-25T06:56:13.172Z,4.00
2018-08-25T06:58:41.546Z,3.23
2018-08-25T07:01:09.947Z,3.00
2018-08-25T07:03:38.314Z,3.40
2018-08-25T07:06:06.770Z,3.20
2018-08-25T07:08:35.110Z,2.73
2018-08-25T07:11:03.586Z,2.50
2018-08-25T07:13:31.954Z,2.73
2018-08-25T07:16:00.350Z,3.27
2018-08-25T07:18:28.753Z,3.10
2018-08-25T07:20:57.278Z,2.73
2018-08-25T07:23:25.643Z,2.87
2018-08-25T07:25:54.124Z,2.90
2018-08-25T07:28:22.432Z,2.43
2018-08-25T07:30:50.826Z,2.93
2018-08-25T07:33:19.191Z,2.30
2018-08-25T07:35:47.573Z,2.63
2018-08-25T07:38:16.022Z,2.13
2018-08-25T07:40:44.487Z,2.40
2018-08-25T07:43:12.858Z,2.60
2018-08-25T07:45:41.246Z,2.37
2018-08-25T07:48:09.622Z,2.30
2018-08-25T07:50:38.042Z,2.23
2018-08-25T07:53:06.410Z,2.40
2018-08-25T07:55:34.790Z,2.23
2018-08-25T07:58:03.159Z,2.43
2018-08-25T08:00:31.549Z,2.53
2018-08-25T08:02:59.913Z,2.00
2018-08-25T08:05:28.330Z,1.63
2018-08-25T08:07:56.694Z,2.57
2018-08-25T08:10:25.090Z,2.90
2018-08-25T08:12:53.460Z,2.07
2018-08-25T08:15:21.846Z,2.53
2018-08-25T08:17:50.247Z,2.40
2018-08-25T08:20:18.647Z,2.73
2018-08-25T08:22:47.022Z,3.10
2018-08-25T08:25:15.414Z,2.60
2018-08-25T08:27:43.798Z,2.53
2018-08-25T08:30:12.199Z,2.80
2018-08-25T08:32:40.574Z,2.40
2018-08-25T08:35:09.327Z,2.00
2018-08-25T08:37:37.714Z,2.00
2018-08-25T08:40:06.151Z,2.20
2018-08-25T08:42:34.531Z,2.27
2018-08-25T08:45:02.899Z,2.43
2018-08-25T08:47:31.336Z,2.07
2018-08-25T08:49:59.865Z,2.33
2018-08-25T08:52:28.398Z,2.10
2018-08-25T08:54:56.800Z,3.33
2018-08-25T08:57:25.190Z,2.47
2018-08-25T08:59:53.560Z,1.93
2018-08-25T09:02:21.955Z,2.10
2018-08-25T09:04:50.320Z,1.90
2018-08-25T09:07:18.718Z,1.97
2018-08-25T09:09:47.096Z,2.33
2018-08-25T09:12:15.493Z,2.20
2018-08-25T09:14:43.858Z,1.87
2018-08-25T09:17:12.249Z,2.90
2018-08-25T09:19:40.644Z,2.00
2018-08-25T09:22:09.043Z,2.50
2018-08-25T09:24:37.574Z,1.77
2018-08-25T09:27:06.093Z,2.57
2018-08-25T09:29:34.454Z,2.03
2018-08-25T09:32:03.247Z,1.87
2018-08-25T09:34:31.619Z,1.90
2018-08-25T09:37:00.214Z,1.87
2018-08-25T09:39:28.443Z,2.50
2018-08-25T09:41:56.830Z,3.50
2018-08-25T09:44:25.212Z,1.90
2018-08-25T09:46:53.671Z,2.20
2018-08-25T09:49:22.026Z,2.30
2018-08-25T09:51:50.443Z,2.50
2018-08-25T09:54:18.811Z,2.10
2018-08-25T09:56:47.215Z,2.53
2018-08-25T09:59:15.574Z,2.00
2018-08-25T10:01:49.263Z,1.90
2018-08-25T10:04:17.631Z,2.30
2018-08-25T10:06:46.018Z,2.30
2018-08-25T10:09:14.387Z,2.00
2018-08-25T10:11:42.779Z,2.63
2018-08-25T10:14:11.157Z,2.27
2018-08-25T10:16:39.582Z,3.40
2018-08-25T10:19:07.967Z,2.30
2018-08-25T10:21:36.426Z,3.90
2018-08-25T10:24:04.794Z,2.67
2018-08-25T10:26:33.179Z,2.27
2018-08-25T10:29:01.659Z,2.87
2018-08-25T10:31:29.974Z,3.00
2018-08-25T10:33:58.352Z,2.00
2018-08-25T10:36:26.819Z,2.50
2018-08-25T10:38:55.210Z,2.87
2018-08-25T10:41:23.574Z,1.80
2018-08-25T10:43:51.955Z,2.10
2018-08-25T10:46:20.553Z,2.47
2018-08-25T10:48:49.055Z,2.30
2018-08-25T10:51:17.446Z,2.30
2018-08-25T10:53:45.868Z,2.50
2018-08-25T10:56:14.239Z,2.27
2018-08-25T10:58:42.638Z,2.30
2018-08-25T11:01:11.092Z,2.00
2018-08-25T11:03:39.436Z,2.13
2018-08-25T11:06:08.015Z,2.57
2018-08-25T11:08:36.411Z,2.20
2018-08-25T11:11:04.778Z,3.27
2018-08-25T11:13:33.896Z,2.00
2018-08-25T11:16:02.282Z,1.83
2018-08-25T11:18:30.707Z,2.43
2018-08-25T11:20:59.599Z,2.57
2018-08-25T11:23:28.202Z,2.40
2018-08-25T11:25:56.576Z,2.50
2018-08-25T11:28:24.963Z,2.37
2018-08-25T11:30:53.326Z,2.73
2018-08-25T11:33:21.718Z,2.27
2018-08-25T11:35:50.090Z,2.33
2018-08-25T11:38:18.576Z,1.53
2018-08-25T11:40:46.946Z,2.60
2018-08-25T11:43:15.338Z,2.20
2018-08-25T11:45:43.708Z,2.50
2018-08-25T11:48:12.128Z,2.10
2018-08-25T11:50:40.490Z,1.97
2018-08-25T11:53:08.895Z,1.73
2018-08-25T11:55:37.262Z,2.53
2018-08-25T11:58:05.656Z,2.33
2018-08-25T12:00:34.056Z,1.73
2018-08-25T12:03:03.833Z,2.30
2018-08-25T12:05:30.910Z,2.40
2018-08-25T12:07:59.440Z,2.10
2018-08-25T12:10:27.807Z,2.57
2018-08-25T12:12:56.211Z,2.40
2018-08-25T12:15:24.587Z,2.13
2018-08-25T12:17:52.995Z,2.30
2018-08-25T12:20:21.375Z,2.57
2018-08-25T12:22:49.775Z,2.83
2018-08-25T12:25:18.142Z,2.27
2018-08-25T12:27:46.530Z,2.60
2018-08-25T12:30:14.951Z,2.70
2018-08-25T12:32:43.752Z,2.50
2018-08-25T12:35:12.288Z,2.90
2018-08-25T12:37:40.808Z,1.87
2018-08-25T12:40:09.740Z,2.37
2018-08-25T12:42:38.119Z,2.17
2018-08-25T12:45:06.678Z,2.67
2018-08-25T12:47:35.282Z,2.27
2018-08-25T12:50:03.782Z,2.17
2018-08-25T12:52:32.377Z,2.40
2018-08-25T12:55:00.952Z,3.17
2018-08-25T12:57:29.647Z,3.07
2018-08-25T12:59:58.130Z,3.07
2018-08-25T13:02:26.571Z,3.90
2018-08-25T13:04:56.127Z,3.40
2018-08-25T13:07:24.670Z,4.23
2018-08-25T13:09:53.390Z,2.90
2018-08-25T13:12:21.772Z,3.30
2018-08-25T13:14:50.417Z,3.30
2018-08-25T13:17:18.846Z,3.27
2018-08-25T13:19:47.334Z,3.30
2018-08-25T13:22:16.000Z,2.73
2018-08-25T13:24:44.650Z,2.50
2018-08-25T13:27:13.206Z,2.03
2018-08-25T13:29:41.687Z,2.60
2018-08-25T13:32:10.358Z,2.13
2018-08-25T13:34:38.831Z,2.33
2018-08-25T13:37:07.505Z,2.50
2018-08-25T13:39:36.070Z,2.17
2018-08-25T13:42:04.554Z,2.07
2018-08-25T13:44:33.182Z,2.30
2018-08-25T13:47:01.554Z,1.73
2018-08-25T13:49:29.966Z,2.47
2018-08-25T13:51:58.344Z,1.83
2018-08-25T13:54:26.939Z,2.33
2018-08-25T13:56:55.363Z,1.57
2018-08-25T13:59:23.819Z,1.50
2018-08-25T14:01:52.350Z,2.10
2018-08-25T14:04:20.743Z,2.00
2018-08-25T14:06:49.119Z,1.97
2018-08-25T14:09:17.519Z,1.83
2018-08-25T14:11:46.002Z,1.70
2018-08-25T14:14:14.463Z,2.10
2018-08-25T14:16:42.851Z,2.50
2018-08-25T14:19:11.275Z,2.43
2018-08-25T14:21:39.868Z,2.20
2018-08-25T14:24:08.387Z,2.00
2018-08-25T14:26:36.866Z,1.80
2018-08-25T14:29:05.586Z,1.90
2018-08-25T14:31:33.960Z,2.03
2018-08-25T14:34:02.459Z,1.60
2018-08-25T14:36:30.930Z,2.10
2018-08-25T14:38:59.473Z,1.90
2018-08-25T14:41:27.994Z,1.47
2018-08-25T14:43:56.369Z,2.00
2018-08-25T14:46:24.875Z,1.20
2018-08-25T14:48:53.362Z,1.27
2018-08-25T14:51:22.104Z,1.10
2018-08-25T14:53:50.573Z,1.50
2018-08-25T14:56:18.982Z,1.27
2018-08-25T14:58:47.521Z,2.23
2018-08-25T15:01:16.185Z,1.77
2018-08-25T15:03:44.774Z,2.37
2018-08-25T15:06:13.564Z,1.30
2018-08-25T15:08:42.062Z,1.57
2018-08-25T15:11:10.618Z,1.90
2018-08-25T15:13:39.146Z,1.07
2018-08-25T15:16:07.634Z,1.40
2018-08-25T15:18:36.251Z,1.40
2018-08-25T15:21:04.637Z,1.53
2018-08-25T15:23:33.015Z,1.47
2018-08-25T15:26:01.427Z,1.67
2018-08-25T15:28:29.882Z,1.70
2018-08-25T15:30:58.314Z,7.03
2018-08-25T15:33:26.855Z,6.43
2018-08-25T15:35:55.250Z,6.63
2018-08-25T15:38:23.627Z,1.83
2018-08-25T15:40:52.025Z,1.87
2018-08-25T15:43:20.406Z,2.30
2018-08-25T15:45:48.805Z,3.73
2018-08-25T15:48:17.178Z,4.57
2018-08-25T15:50:45.580Z,2.23
2018-08-25T15:53:13.947Z,3.00
2018-08-25T15:55:42.339Z,2.60
2018-08-25T15:58:10.706Z,1.77
2018-08-25T16:00:39.098Z,1.73
2018-08-25T16:03:07.478Z,2.50
2018-08-25T16:05:35.868Z,2.43
2018-08-25T16:08:04.390Z,1.80
2018-08-25T16:10:32.783Z,1.70
2018-08-25T16:13:01.158Z,1.33
2018-08-25T16:15:29.761Z,1.30
2018-08-25T16:17:58.157Z,1.50
2018-08-25T16:20:26.573Z,1.50
2018-08-25T16:22:55.062Z,2.27
2018-08-25T16:25:23.455Z,1.87
2018-08-25T16:27:52.027Z,1.33
2018-08-25T16:30:20.426Z,1.33
2018-08-25T16:32:48.793Z,1.30
2018-08-25T16:35:17.182Z,1.20
2018-08-25T16:37:45.550Z,1.10
2018-08-25T16:40:13.955Z,1.50
2018-08-25T16:42:42.353Z,1.70
2018-08-25T16:45:10.731Z,1.63
2018-08-25T16:47:39.130Z,2.60
2018-08-25T16:50:07.541Z,3.60
2018-08-25T16:52:36.262Z,3.70
2018-08-25T16:55:04.655Z,2.10
2018-08-25T16:57:33.057Z,1.70
2018-08-25T17:00:01.565Z,1.80
2018-08-25T17:02:29.970Z,1.80
2018-08-25T17:04:58.338Z,1.53
2018-08-25T17:07:26.738Z,1.40
2018-08-25T17:09:55.158Z,1.37
2018-08-25T17:12:23.571Z,1.20
2018-08-25T17:14:51.950Z,1.50
2018-08-25T17:17:20.992Z,1.53
2018-08-25T17:19:49.390Z,1.90
2018-08-25T17:22:17.779Z,1.50
2018-08-25T17:24:46.155Z,1.90
2018-08-25T17:27:14.550Z,1.10
2018-08-25T17:29:42.912Z,1.23
2018-08-25T17:32:11.327Z,0.83
2018-08-25T17:34:39.696Z,0.90
2018-08-25T17:37:08.082Z,1.00
2018-08-25T17:39:36.451Z,1.30
2018-08-25T17:42:04.850Z,1.70
2018-08-25T17:44:33.206Z,1.33
2018-08-25T17:47:01.603Z,1.00
2018-08-25T17:49:30.017Z,1.03
2018-08-25T17:51:58.440Z,0.93
2018-08-25T17:54:26.819Z,1.63
2018-08-25T17:56:55.237Z,0.90
2018-08-25T17:59:23.607Z,1.00
2018-08-25T18:01:52.003Z,1.10
2018-08-25T18:04:20.376Z,0.90
2018-08-25T18:06:48.763Z,1.03
2018-08-25T18:09:17.122Z,0.90
2018-08-25T18:11:45.511Z,0.87
2018-08-25T18:14:14.098Z,0.80
2018-08-25T18:16:42.762Z,0.90
2018-08-25T18:19:11.158Z,1.23
2018-08-25T18:21:39.558Z,1.17
2018-08-25T18:24:07.921Z,1.40
2018-08-25T18:26:36.318Z,1.87
2018-08-25T18:29:04.807Z,1.10
2018-08-25T18:31:33.205Z,0.80
2018-08-25T18:34:01.575Z,0.80
2018-08-25T18:36:29.979Z,1.07
2018-08-25T18:38:58.355Z,0.70
2018-08-25T18:41:26.748Z,1.13
2018-08-25T18:43:55.123Z,0.90
2018-08-25T18:46:23.496Z,1.00
2018-08-25T18:48:51.889Z,0.90
2018-08-25T18:51:20.262Z,0.90
2018-08-25T18:53:48.647Z,0.80
2018-08-25T18:56:17.014Z,1.10
2018-08-25T18:58:45.423Z,0.90
2018-08-25T19:01:13.910Z,0.90
2018-08-25T19:03:42.398Z,1.10
2018-08-25T19:06:10.771Z,1.40
2018-08-25T19:08:39.201Z,0.87
2018-08-25T19:11:07.558Z,1.00
2018-08-25T19:13:35.942Z,1.30
2018-08-25T19:16:04.377Z,2.27
2018-08-25T19:18:32.797Z,1.53
2018-08-25T19:21:01.170Z,1.33
2018-08-25T19:23:29.558Z,1.07
2018-08-25T19:25:57.922Z,1.00
2018-08-25T19:28:26.502Z,0.87
2018-08-25T19:30:54.957Z,1.20
2018-08-25T19:33:23.337Z,1.70
2018-08-25T19:35:51.983Z,0.83
2018-08-25T19:38:20.379Z,1.20
2018-08-25T19:40:48.780Z,1.27
2018-08-25T19:43:17.175Z,1.30
2018-08-25T19:45:45.547Z,1.33
2018-08-25T19:48:13.938Z,1.20
2018-08-25T19:50:42.303Z,1.30
2018-08-25T19:53:10.745Z,1.20
2018-08-25T19:55:39.104Z,1.50
2018-08-25T19:58:07.495Z,1.77
2018-08-25T20:00:35.939Z,1.47
2018-08-25T20:03:04.334Z,1.40
2018-08-25T20:05:32.862Z,1.30
2018-08-25T20:08:01.119Z,1.37
2018-08-25T20:10:29.484Z,1.30
2018-08-25T20:12:57.883Z,1.63
2018-08-25T20:15:26.284Z,1.60
2018-08-25T20:17:54.687Z,1.67
2018-08-25T20:20:23.138Z,1.40
2018-08-25T20:22:51.539Z,1.43
2018-08-25T20:25:19.902Z,1.30
2018-08-25T20:27:48.302Z,1.17
2018-08-25T20:30:16.750Z,1.30
2018-08-25T20:32:45.096Z,1.47
2018-08-25T20:35:13.472Z,1.30
2018-08-25T20:37:41.863Z,1.53
2018-08-25T20:40:10.235Z,1.43
2018-08-25T20:42:38.628Z,1.50
2018-08-25T20:45:06.999Z,1.40
2018-08-25T20:47:35.419Z,1.57
2018-08-25T20:50:03.820Z,1.93
2018-08-25T20:52:32.191Z,1.67
2018-08-25T20:55:00.577Z,1.50
2018-08-25T20:57:28.949Z,1.30
2018-08-25T20:59:57.330Z,2.17
2018-08-25T21:02:25.690Z,1.77
2018-08-25T21:04:55.873Z,1.93
2018-08-25T21:07:24.246Z,1.93
2018-08-25T21:09:52.638Z,2.00
2018-08-25T21:12:21.187Z,1.60
2018-08-25T21:14:49.578Z,1.70
2018-08-25T21:17:17.993Z,2.23
2018-08-25T21:19:46.418Z,1.70
2018-08-25T21:22:15.019Z,1.57
2018-08-25T21:24:43.618Z,1.80
2018-08-25T21:27:11.988Z,2.20
2018-08-25T21:29:40.391Z,2.03
2018-08-25T21:32:08.754Z,2.37
2018-08-25T21:34:37.138Z,1.60
2018-08-25T21:37:05.503Z,1.83
2018-08-25T21:39:33.998Z,2.57
2018-08-25T21:42:02.366Z,2.00
2018-08-25T21:44:30.768Z,2.00
2018-08-25T21:46:59.138Z,2.03
2018-08-25T21:49:27.522Z,1.67
2018-08-25T21:51:55.896Z,2.20
2018-08-25T21:54:24.287Z,1.80
2018-08-25T21:56:52.657Z,1.70
2018-08-25T21:59:21.051Z,2.23
2018-08-25T22:01:54.899Z,1.90
2018-08-25T22:04:23.292Z,1.80
2018-08-25T22:06:51.658Z,2.10
2018-08-25T22:09:20.079Z,1.87
2018-08-25T22:11:48.446Z,2.10
2018-08-25T22:14:16.842Z,2.00
2018-08-25T22:16:45.211Z,2.30
2018-08-25T22:19:13.642Z,2.27
2018-08-25T22:21:42.032Z,2.17
2018-08-25T22:24:10.422Z,1.87
2018-08-25T22:26:38.792Z,1.60
2018-08-25T22:29:07.179Z,1.90
2018-08-25T22:31:35.542Z,1.80
2018-08-25T22:34:03.934Z,2.13
2018-08-25T22:36:32.307Z,1.70
2018-08-25T22:39:00.704Z,1.57
2018-08-25T22:41:29.185Z,2.47
2018-08-25T22:43:57.499Z,2.83
2018-08-25T22:46:25.866Z,2.10
2018-08-25T22:48:54.249Z,2.30
2018-08-25T22:51:22.691Z,2.10
2018-08-25T22:53:51.043Z,1.60
2018-08-25T22:56:19.439Z,2.20
2018-08-25T22:58:47.814Z,2.10
2018-08-25T23:01:16.225Z,2.03
2018-08-25T23:03:44.595Z,2.00
2018-08-25T23:06:12.987Z,1.70
2018-08-25T23:08:41.359Z,1.90
2018-08-25T23:11:09.737Z,2.53
2018-08-25T23:13:38.108Z,1.80
2018-08-25T23:16:06.486Z,2.33
2018-08-25T23:18:34.870Z,1.90
2018-08-25T23:21:03.383Z,2.40
2018-08-25T23:23:31.746Z,2.70
2018-08-25T23:26:00.208Z,2.17
2018-08-25T23:28:28.574Z,2.20
2018-08-25T23:30:56.957Z,1.90
2018-08-25T23:33:25.332Z,2.73
2018-08-25T23:35:53.736Z,2.50
2018-08-25T23:38:22.096Z,2.37
2018-08-25T23:40:50.486Z,2.37
2018-08-25T23:43:18.862Z,2.50
2018-08-25T23:45:47.255Z,1.40
2018-08-25T23:48:15.612Z,2.20
2018-08-25T23:50:44.003Z,2.60
2018-08-25T23:53:12.375Z,2.33
2018-08-25T23:55:40.766Z,2.60
2018-08-25T23:58:09.142Z,2.50
